Time;durP1;ratioP1;P1;durP2;ratioP2;P2;SDS_P1;SDS_P2;PMS_P1;PMS_P2;Temp;Humidity;BMP_temperature;BMP_pressure;BME280_temperature;BME280_humidity;BME280_pressure;Samples;Min_cycle;Max_cycle;Signal;HPM_P1;HPM_P2
2024/01/08 00:00:30;;;;;;;9.77;7.80;;;-2.30;94.90;;;;;;5056381;28;20293;-91
2024/01/08 00:02:59;;;;;;;10.43;7.20;;;-2.40;94.90;;;;;;5075348;28;20289;-92
2024/01/08 00:05:28;;;;;;;13.70;6.95;;;-2.40;94.70;;;;;;5069105;28;20233;-82
2024/01/08 00:07:56;;;;;;;9.95;8.20;;;-2.40;94.90;;;;;;5060346;28;20307;-82
2024/01/08 00:10:25;;;;;;;11.32;10.32;;;-2.40;95.00;;;;;;5053782;28;20234;-92
2024/01/08 00:12:53;;;;;;;12.05;8.45;;;-2.40;95.10;;;;;;5057004;28;20233;-91
2024/01/08 00:15:20;;;;;;;11.10;8.00;;;-2.40;95.40;;;;;;5055103;28;20221;-92
2024/01/08 00:17:47;;;;;;;10.15;7.45;;;-2.50;95.20;;;;;;5055247;28;20563;-92
2024/01/08 00:20:17;;;;;;;9.65;6.55;;;-2.50;95.30;;;;;;5053366;28;20299;-92
2024/01/08 00:22:46;;;;;;;13.40;8.57;;;-2.50;95.30;;;;;;5054037;28;20288;-83
2024/01/08 00:25:13;;;;;;;12.07;7.78;;;-2.60;95.30;;;;;;5052677;28;20235;-83
2024/01/08 00:27:40;;;;;;;9.52;7.40;;;-2.60;95.40;;;;;;5052363;28;20228;-83
2024/01/08 00:30:18;;;;;;;7.80;6.93;;;-2.60;95.50;;;;;;5040015;28;20247;-92
2024/01/08 00:32:45;;;;;;;10.38;6.78;;;-2.60;95.60;;;;;;5053241;28;20231;-92
2024/01/08 00:35:20;;;;;;;9.88;7.93;;;-2.60;95.80;;;;;;5071352;28;20231;-83
2024/01/08 00:37:49;;;;;;;16.30;8.27;;;-2.60;95.90;;;;;;5051616;28;20224;-83
2024/01/08 00:40:19;;;;;;;10.32;6.65;;;-2.60;95.90;;;;;;5052648;28;20224;-83
2024/01/08 00:42:47;;;;;;;9.50;7.07;;;-2.50;95.90;;;;;;5043172;28;20230;-83
2024/01/08 00:45:17;;;;;;;9.25;7.20;;;-2.50;95.60;;;;;;5075445;28;20298;-93
2024/01/08 00:48:25;;;;;;;8.50;7.13;;;-2.50;95.60;;;;;;5071442;28;20335;-93
2024/01/08 00:50:57;;;;;;;14.88;7.15;;;-2.50;95.70;;;;;;5053074;28;20221;-94
2024/01/08 00:53:31;;;;;;;9.68;7.03;;;-2.50;95.60;;;;;;5054872;28;20233;-83
2024/01/08 00:55:58;;;;;;;14.38;7.18;;;-2.50;95.60;;;;;;5058370;28;20234;-93
2024/01/08 00:58:41;;;;;;;11.45;8.10;;;-2.60;95.60;;;;;;5039663;28;20228;-94
2024/01/08 01:01:09;;;;;;;9.68;6.18;;;-2.70;95.80;;;;;;5059505;28;20221;-83
2024/01/08 01:03:36;;;;;;;11.00;7.50;;;-2.70;95.80;;;;;;5047195;28;20216;-83
2024/01/08 01:06:05;;;;;;;8.15;6.32;;;-2.70;95.90;;;;;;5050905;28;20228;-83
2024/01/08 01:08:40;;;;;;;10.32;7.07;;;-2.70;96.00;;;;;;5066837;28;20227;-83
2024/01/08 01:11:07;;;;;;;8.57;6.72;;;-2.70;96.00;;;;;;5056123;28;20289;-83
2024/01/08 01:13:37;;;;;;;8.13;6.90;;;-2.70;95.90;;;;;;5055617;28;20240;-84
2024/01/08 01:16:04;;;;;;;11.85;8.43;;;-2.70;95.90;;;;;;5055994;28;20217;-83
2024/01/08 01:18:34;;;;;;;13.48;6.80;;;-2.70;96.10;;;;;;5056451;28;20216;-83
2024/01/08 01:21:06;;;;;;;11.68;7.60;;;-2.70;96.20;;;;;;5056057;28;20571;-92
2024/01/08 01:23:35;;;;;;;9.77;7.43;;;-2.60;96.10;;;;;;5050713;28;20319;-92
2024/01/08 01:26:04;;;;;;;10.77;6.35;;;-2.70;96.20;;;;;;5062612;28;20255;-83
2024/01/08 01:28:38;;;;;;;8.75;7.28;;;-2.70;96.20;;;;;;5052949;28;20252;-82
2024/01/08 01:31:05;;;;;;;9.23;6.15;;;-2.70;96.00;;;;;;5063063;28;20225;-82
2024/01/08 01:33:33;;;;;;;14.20;7.38;;;-2.70;95.90;;;;;;5061119;28;20220;-91
2024/01/08 01:36:15;;;;;;;12.48;7.38;;;-2.70;95.80;;;;;;5063779;28;20224;-83
2024/01/08 01:38:45;;;;;;;10.05;7.80;;;-2.70;95.90;;;;;;5059709;28;20228;-83
2024/01/08 01:44:43;;;;;;;11.52;7.07;;;-2.80;96.00;;;;;;5042850;28;20263;-93
2024/01/08 01:50:33;;;;;;;8.52;6.30;;;-2.80;96.00;;;;;;5007980;28;20311;-92
2024/01/08 01:53:05;;;;;;;13.13;7.13;;;-2.80;95.90;;;;;;5072603;28;20263;-92
2024/01/08 01:55:32;;;;;;;11.07;6.70;;;-2.70;96.20;;;;;;5072673;28;20221;-87
2024/01/08 01:58:00;;;;;;;8.88;5.90;;;-2.70;96.30;;;;;;5071021;28;20228;-92
2024/01/08 02:00:27;;;;;;;10.55;6.93;;;-2.70;96.10;;;;;;5089906;28;20232;-92
2024/01/08 02:03:08;;;;;;;;;;;;;;;;;;;;;
2024/01/08 02:05:48;;;;;;;9.88;6.40;;;-2.60;96.00;;;;;;5056108;28;20243;-82
2024/01/08 02:08:18;;;;;;;11.38;7.32;;;-2.60;95.60;;;;;;5062346;28;20232;-82
2024/01/08 02:10:48;;;;;;;9.55;7.70;;;-2.70;95.10;;;;;;5066458;28;20221;-84
2024/01/08 02:13:16;;;;;;;9.40;7.22;;;-2.70;95.00;;;;;;5062411;28;20633;-83
2024/01/08 02:15:44;;;;;;;13.18;7.93;;;-2.80;95.10;;;;;;5054464;28;20240;-82
2024/01/08 02:18:15;;;;;;;9.23;7.43;;;-2.80;95.20;;;;;;5059237;28;20228;-84
2024/01/08 02:20:43;;;;;;;9.68;7.97;;;-2.80;95.40;;;;;;5054082;28;20258;-84
2024/01/08 02:23:21;;;;;;;10.65;7.10;;;-2.80;95.30;;;;;;5055970;28;20229;-93
2024/01/08 02:25:54;;;;;;;12.02;8.73;;;-2.80;95.10;;;;;;5056137;28;20294;-93
2024/01/08 02:28:21;;;;;;;9.80;7.03;;;-2.90;95.00;;;;;;5056137;28;20246;-93
2024/01/08 02:30:48;;;;;;;7.97;6.97;;;-2.90;95.30;;;;;;5055204;28;20236;-83
2024/01/08 02:33:17;;;;;;;9.43;6.85;;;-2.80;95.60;;;;;;5055185;28;20316;-93
2024/01/08 02:35:45;;;;;;;10.85;8.13;;;-2.80;95.50;;;;;;5055865;28;20312;-91
2024/01/08 02:38:16;;;;;;;9.73;8.35;;;-2.80;95.60;;;;;;5056347;28;20251;-83
2024/01/08 02:40:45;;;;;;;9.10;7.53;;;-2.70;95.70;;;;;;5054436;28;20244;-83
2024/01/08 02:43:12;;;;;;;14.15;9.15;;;-2.80;95.10;;;;;;5054343;28;20298;-83
2024/01/08 02:45:46;;;;;;;11.60;7.78;;;-2.70;95.20;;;;;;5060549;28;20263;-83
2024/01/08 02:48:13;;;;;;;11.13;7.97;;;-2.80;94.80;;;;;;5054509;28;20747;-83
2024/01/08 02:50:42;;;;;;;10.40;6.95;;;-2.80;94.70;;;;;;5054515;28;22971;-93
2024/01/08 02:53:13;;;;;;;9.82;8.55;;;-2.80;94.70;;;;;;5056712;28;20229;-92
2024/01/08 02:55:40;;;;;;;8.88;7.20;;;-2.90;94.70;;;;;;5045303;28;20625;-82
2024/01/08 02:58:10;;;;;;;13.70;7.13;;;-2.90;94.70;;;;;;5067419;28;20702;-83
2024/01/08 03:00:37;;;;;;;9.52;7.35;;;-2.90;94.70;;;;;;5053949;28;20308;-83
2024/01/08 03:03:09;;;;;;;10.32;7.03;;;-2.90;94.80;;;;;;5057183;28;20580;-92
2024/01/08 03:05:37;;;;;;;10.20;7.78;;;-2.80;94.90;;;;;;5062371;28;20616;-93
2024/01/08 03:08:04;;;;;;;8.70;7.55;;;-2.90;94.60;;;;;;5056144;28;20252;-92
2024/01/08 03:10:45;;;;;;;;;;;;;;;;;;;;;
2024/01/08 03:13:44;;;;;;;11.10;7.75;;;-2.90;94.10;;;;;;5054080;28;20259;-93
2024/01/08 03:16:11;;;;;;;6.88;6.28;;;-2.90;94.00;;;;;;5050569;28;20228;-93
2024/01/08 03:18:48;;;;;;;;;;;;;;;;;;;;;
2024/01/08 03:21:16;;;;;;;10.40;7.28;;;-3.00;94.00;;;;;;5052760;28;20229;-83
2024/01/08 03:23:43;;;;;;;7.45;6.65;;;-3.00;94.20;;;;;;5055351;28;20693;-92
2024/01/08 03:26:12;;;;;;;11.70;6.38;;;-3.00;94.40;;;;;;5052119;28;20568;-83
2024/01/08 03:28:43;;;;;;;11.90;7.05;;;-3.00;94.20;;;;;;5054594;28;20233;-93
2024/01/08 03:31:11;;;;;;;7.70;6.45;;;-3.00;93.90;;;;;;5055590;28;20221;-83
2024/01/08 03:33:38;;;;;;;9.38;7.85;;;-3.10;93.50;;;;;;5055085;28;20225;-93
2024/01/08 03:36:18;;;;;;;10.27;6.85;;;-3.10;93.70;;;;;;5055122;28;20240;-93
2024/01/08 03:38:50;;;;;;;9.90;7.10;;;-3.20;93.60;;;;;;5054562;28;20225;-93
2024/01/08 03:41:19;;;;;;;10.15;6.68;;;-3.20;93.70;;;;;;5053854;28;20719;-84
2024/01/08 03:43:49;;;;;;;9.13;6.43;;;-3.30;93.40;;;;;;5053702;28;20239;-83
2024/01/08 03:46:16;;;;;;;9.57;6.22;;;-3.30;93.20;;;;;;5052673;28;20740;-83
2024/01/08 03:48:43;;;;;;;8.57;6.00;;;-3.30;93.10;;;;;;5053433;28;20237;-83
2024/01/08 03:51:17;;;;;;;6.78;6.13;;;-3.40;93.10;;;;;;5053959;28;20231;-83
2024/01/08 03:53:44;;;;;;;8.48;6.32;;;-3.40;93.30;;;;;;5045275;28;20311;-83
2024/01/08 03:56:16;;;;;;;7.43;6.30;;;-3.50;93.20;;;;;;5052266;28;20247;-83
2024/01/08 03:58:43;;;;;;;7.75;6.95;;;-3.40;93.50;;;;;;5054101;28;20675;-83
2024/01/08 04:01:14;;;;;;;9.52;5.78;;;-3.40;93.30;;;;;;5042201;28;20224;-83
2024/01/08 04:03:42;;;;;;;9.32;7.15;;;-3.40;93.50;;;;;;5058399;28;20221;-83
2024/01/08 04:06:24;;;;;;;13.15;7.75;;;-3.40;93.20;;;;;;5056176;28;20679;-93
2024/01/08 04:08:52;;;;;;;13.73;6.55;;;-3.40;93.40;;;;;;5053925;28;20231;-93
2024/01/08 04:11:19;;;;;;;8.38;6.95;;;-3.50;93.40;;;;;;5053656;28;20224;-92
2024/01/08 04:13:47;;;;;;;10.40;7.50;;;-3.50;93.40;;;;;;5051208;28;20225;-92
2024/01/08 04:16:16;;;;;;;8.57;5.75;;;-3.40;93.60;;;;;;5054898;28;20220;-93
2024/01/08 04:18:43;;;;;;;10.52;7.25;;;-3.40;93.60;;;;;;5046580;28;20243;-91
2024/01/08 04:21:10;;;;;;;9.93;6.30;;;-3.40;93.40;;;;;;5054860;28;20669;-93
2024/01/08 04:23:37;;;;;;;8.88;6.05;;;-3.40;93.50;;;;;;5055356;28;20256;-93
2024/01/08 04:26:12;;;;;;;9.85;6.43;;;-3.50;93.20;;;;;;5054629;28;20350;-93
2024/01/08 04:28:39;;;;;;;8.07;6.22;;;-3.50;93.40;;;;;;5055067;28;20285;-83
2024/01/08 04:31:07;;;;;;;9.68;6.07;;;-3.60;93.50;;;;;;5055884;28;20300;-83
2024/01/08 04:33:37;;;;;;;9.75;7.35;;;-3.60;93.60;;;;;;5056966;28;20762;-83
2024/01/08 04:36:10;;;;;;;9.30;6.50;;;-3.70;93.80;;;;;;5054830;28;20258;-93
2024/01/08 04:38:40;;;;;;;9.63;5.72;;;-3.70;93.90;;;;;;5061040;28;20221;-93
2024/01/08 04:41:08;;;;;;;9.88;6.57;;;-3.70;93.90;;;;;;5058455;28;20236;-93
2024/01/08 04:43:35;;;;;;;8.30;6.55;;;-3.70;94.00;;;;;;5057058;28;20225;-93
2024/01/08 04:46:04;;;;;;;6.95;5.55;;;-3.70;94.00;;;;;;5057094;28;20235;-93
2024/01/08 04:48:36;;;;;;;12.55;8.60;;;-3.60;94.30;;;;;;5056723;28;20216;-92
2024/01/08 04:51:03;;;;;;;10.68;7.82;;;-3.60;94.40;;;;;;5057558;28;20239;-93
2024/01/08 04:53:34;;;;;;;9.57;7.22;;;-3.60;94.40;;;;;;5058420;28;20221;-84
2024/01/08 04:56:01;;;;;;;12.32;6.53;;;-3.60;94.40;;;;;;5055613;28;20236;-83
2024/01/08 04:58:28;;;;;;;9.70;7.55;;;-3.60;94.30;;;;;;5056078;28;20259;-83
2024/01/08 05:00:56;;;;;;;11.98;7.20;;;-3.60;94.40;;;;;;5055946;28;20239;-84
2024/01/08 05:03:23;;;;;;;9.95;7.15;;;-3.60;94.50;;;;;;5056431;28;20311;-83
2024/01/08 05:05:51;;;;;;;7.35;6.55;;;-3.50;94.80;;;;;;5056070;28;20229;-83
2024/01/08 05:08:18;;;;;;;9.95;7.05;;;-3.40;94.90;;;;;;5056310;28;20228;-83
2024/01/08 05:10:45;;;;;;;13.23;7.95;;;-3.40;94.60;;;;;;5057911;28;20233;-93
2024/01/08 05:13:13;;;;;;;9.02;7.00;;;-3.40;94.70;;;;;;5055881;28;20231;-82
2024/01/08 05:15:42;;;;;;;10.35;7.30;;;-3.30;94.70;;;;;;5055468;28;20216;-83
2024/01/08 05:18:18;;;;;;;7.82;6.63;;;-3.30;94.60;;;;;;5056156;28;20316;-92
2024/01/08 05:20:45;;;;;;;9.88;6.75;;;-3.30;94.50;;;;;;5057108;28;20540;-83
2024/01/08 05:23:13;;;;;;;6.68;5.10;;;-3.30;94.40;;;;;;5055293;28;20225;-83
2024/01/08 05:25:40;;;;;;;10.63;6.90;;;-3.40;94.10;;;;;;5056083;28;20225;-83
2024/01/08 05:28:09;;;;;;;9.90;6.65;;;-3.40;94.30;;;;;;5055555;28;20298;-83
2024/01/08 05:30:40;;;;;;;9.15;7.55;;;-3.40;94.50;;;;;;5063179;28;20263;-83
2024/01/08 05:33:07;;;;;;;11.13;7.20;;;-3.40;94.70;;;;;;5056041;28;20221;-83
2024/01/08 05:35:41;;;;;;;11.55;7.63;;;-3.40;94.80;;;;;;5055336;28;20224;-83
2024/01/08 05:38:09;;;;;;;10.57;7.93;;;-3.30;94.80;;;;;;5055851;28;20231;-92
2024/01/08 05:40:38;;;;;;;11.60;7.20;;;-3.40;94.60;;;;;;5055849;28;20691;-93
2024/01/08 05:43:06;;;;;;;9.65;7.47;;;-3.40;94.70;;;;;;5056050;28;20233;-92
2024/01/08 05:45:38;;;;;;;9.43;7.70;;;-3.40;94.80;;;;;;5055584;28;20216;-93
2024/01/08 05:48:06;;;;;;;10.98;6.60;;;-3.40;95.00;;;;;;5056772;28;20217;-92
2024/01/08 05:50:36;;;;;;;7.97;5.85;;;-3.40;94.90;;;;;;5057209;28;20221;-93
2024/01/08 05:53:06;;;;;;;10.05;7.70;;;-3.40;94.90;;;;;;5056426;28;20287;-92
2024/01/08 05:55:34;;;;;;;10.55;6.82;;;-3.40;95.00;;;;;;5056685;28;20217;-93
2024/01/08 05:58:02;;;;;;;9.93;6.85;;;-3.40;95.30;;;;;;5062308;28;20220;-92
2024/01/08 06:00:38;;;;;;;11.80;8.80;;;-3.40;95.40;;;;;;5047385;28;20216;-93
2024/01/08 06:03:09;;;;;;;9.07;6.63;;;-3.40;95.30;;;;;;5146452;23;20621;-92
2024/01/08 06:05:40;;;;;;;7.63;6.30;;;-3.40;95.40;;;;;;5081222;28;20661;-91
2024/01/08 06:08:47;;;;;;;12.15;8.40;;;-3.50;95.20;;;;;;5078424;28;20238;-92
2024/01/08 06:11:25;;;;;;;10.32;7.15;;;-3.50;95.40;;;;;;5078214;28;20607;-92
2024/01/08 06:14:06;;;;;;;12.02;7.50;;;-3.50;95.60;;;;;;5076681;28;20238;-91
2024/01/08 06:16:35;;;;;;;12.55;6.85;;;-3.50;95.70;;;;;;5076516;28;20226;-92
2024/01/08 06:19:04;;;;;;;11.23;7.50;;;-3.50;95.80;;;;;;5075901;28;20228;-83
2024/01/08 06:21:32;;;;;;;11.25;8.63;;;-3.40;95.90;;;;;;5074642;28;20236;-92
2024/01/08 06:23:59;;;;;;;9.25;6.95;;;-3.50;95.80;;;;;;5091507;28;20239;-92
2024/01/08 06:26:30;;;;;;;7.90;6.63;;;-3.50;96.00;;;;;;5093922;28;20223;-90
2024/01/08 06:29:00;;;;;;;10.50;7.82;;;-3.50;95.90;;;;;;5093544;28;20287;-92
2024/01/08 06:31:27;;;;;;;13.35;8.55;;;-3.40;96.10;;;;;;5100501;28;20252;-91
2024/01/08 06:33:55;;;;;;;9.93;8.50;;;-3.40;96.30;;;;;;5092345;28;20227;-92
2024/01/08 06:36:48;;;;;;;11.30;7.82;;;-3.40;96.30;;;;;;5096377;28;20220;-92
2024/01/08 06:39:16;;;;;;;9.77;6.88;;;-3.40;96.20;;;;;;5069724;28;20230;-92
2024/01/08 06:41:52;;;;;;;12.48;8.40;;;-3.40;96.30;;;;;;5080593;28;20246;-92
2024/01/08 06:44:21;;;;;;;11.07;6.88;;;-3.40;96.40;;;;;;5081137;28;20219;-92
2024/01/08 06:46:48;;;;;;;13.50;7.45;;;-3.30;96.80;;;;;;5078413;28;20219;-92
2024/01/08 06:49:22;;;;;;;11.38;8.32;;;-3.30;97.10;;;;;;5079868;28;20219;-92
2024/01/08 06:51:52;;;;;;;13.82;8.80;;;-3.30;97.10;;;;;;5091596;28;20712;-92
2024/01/08 06:54:20;;;;;;;15.63;8.00;;;-3.20;97.00;;;;;;5083304;28;20313;-92
2024/01/08 06:56:56;;;;;;;14.55;9.35;;;-3.20;97.10;;;;;;5085910;28;20306;-92
2024/01/08 06:59:27;;;;;;;11.18;8.23;;;-3.20;97.20;;;;;;5078166;28;20294;-91
2024/01/08 07:05:44;;;;;;;10.25;7.75;;;-3.10;97.20;;;;;;5065272;28;20215;-83
2024/01/08 07:08:14;;;;;;;11.93;7.38;;;-3.10;97.20;;;;;;5073047;28;20227;-84
2024/01/08 07:10:51;;;;;;;9.55;7.78;;;-3.10;97.00;;;;;;5061214;28;20251;-83
2024/01/08 07:13:29;;;;;;;13.65;8.13;;;-3.10;97.10;;;;;;5081457;28;20302;-83
2024/01/08 07:16:04;;;;;;;11.85;8.18;;;-3.10;97.60;;;;;;5082612;28;20219;-84
2024/01/08 07:18:35;;;;;;;11.25;8.40;;;-3.10;97.50;;;;;;5080086;28;20276;-84
2024/01/08 07:21:02;;;;;;;13.18;8.25;;;-3.10;97.70;;;;;;5075461;28;20251;-83
2024/01/08 07:23:29;;;;;;;11.10;8.95;;;-3.00;98.00;;;;;;5064481;28;20227;-83
2024/01/08 07:25:59;;;;;;;13.15;8.40;;;-3.00;98.20;;;;;;5060405;28;20258;-83
2024/01/08 07:28:26;;;;;;;14.38;8.30;;;-3.00;98.00;;;;;;5072889;28;20228;-82
2024/01/08 07:30:57;;;;;;;11.55;9.07;;;-3.00;98.00;;;;;;5074345;28;20554;-83
2024/01/08 07:33:29;;;;;;;13.00;9.73;;;-3.00;98.20;;;;;;5068151;28;20228;-83
2024/01/08 07:35:57;;;;;;;13.35;8.68;;;-2.90;98.10;;;;;;5089082;28;20222;-83
2024/01/08 07:38:25;;;;;;;11.68;9.80;;;-2.90;98.10;;;;;;5072553;28;20216;-82
2024/01/08 07:40:52;;;;;;;14.80;10.00;;;-2.90;98.00;;;;;;5072151;28;20230;-83
2024/01/08 07:43:25;;;;;;;13.63;9.73;;;-2.90;98.00;;;;;;5096283;28;20254;-82
2024/01/08 07:45:53;;;;;;;10.82;8.38;;;-3.00;98.00;;;;;;5079839;28;20220;-82
2024/01/08 07:48:42;;;;;;;13.93;8.65;;;-2.90;98.10;;;;;;5086392;28;20299;-82
2024/01/08 07:51:18;;;;;;;16.52;10.45;;;-2.90;98.60;;;;;;5075649;28;20220;-84
2024/01/08 07:53:48;;;;;;;11.18;8.30;;;-3.00;97.80;;;;;;5066526;28;20223;-83
2024/01/08 07:56:36;;;;;;;14.07;9.18;;;-3.00;97.80;;;;;;5064041;28;20228;-84
2024/01/08 07:59:04;;;;;;;13.68;9.70;;;-3.10;98.10;;;;;;5072501;28;20277;-82
2024/01/08 08:01:39;;;;;;;15.20;9.80;;;-3.10;98.30;;;;;;5073646;28;20605;-83
2024/01/08 08:04:33;;;;;;;;;;;;;;;;;;;;;
2024/01/08 08:07:03;;;;;;;15.13;10.20;;;-3.00;98.70;;;;;;5089327;28;20196;-82
2024/01/08 08:09:33;;;;;;;14.35;10.00;;;-3.10;98.90;;;;;;5079775;28;20215;-83
2024/01/08 08:12:05;;;;;;;12.82;9.88;;;-3.10;98.70;;;;;;5082351;28;20247;-83
2024/01/08 08:14:37;;;;;;;11.90;9.13;;;-3.10;98.90;;;;;;5091812;28;20307;-83
2024/01/08 08:17:07;;;;;;;13.25;9.30;;;-3.10;99.00;;;;;;5083601;28;20239;-82
2024/01/08 08:20:11;;;;;;;13.52;8.93;;;-3.00;99.10;;;;;;5076094;28;20235;-82
2024/01/08 08:25:57;;;;;;;10.77;8.68;;;-3.10;99.00;;;;;;5083708;28;20611;-83
2024/01/08 08:28:24;;;;;;;12.80;8.55;;;-3.10;99.00;;;;;;5085855;28;20277;-83
2024/01/08 08:31:50;;;;;;;10.32;9.20;;;-3.00;99.20;;;;;;5083250;28;20228;-93
2024/01/08 08:34:42;;;;;;;13.90;8.88;;;-3.00;99.20;;;;;;5056036;28;20244;-82
2024/01/08 08:40:57;;;;;;;9.45;8.48;;;-3.10;99.20;;;;;;5052199;28;20219;-82
2024/01/08 08:43:34;;;;;;;12.30;8.15;;;-3.10;99.30;;;;;;5080802;28;20228;-82
2024/01/08 08:46:24;;;;;;;10.70;8.02;;;-3.00;99.40;;;;;;5083895;28;20315;-82
2024/01/08 08:49:34;;;;;;;13.65;9.38;;;-3.00;99.40;;;;;;5082576;28;20219;-84
2024/01/08 08:52:47;;;;;;;9.73;8.73;;;-3.00;99.20;;;;;;5003661;28;20235;-84
2024/01/08 08:55:25;;;;;;;11.25;7.75;;;-2.90;99.20;;;;;;5092739;28;20220;-82
2024/01/08 08:58:13;;;;;;;;;;;;;;;;;;;;;
2024/01/08 09:00:41;;;;;;;11.75;9.70;;;-2.90;99.00;;;;;;5095976;28;20488;-81
2024/01/08 09:03:23;;;;;;;12.60;8.55;;;-2.90;99.00;;;;;;5083951;28;20223;-82
2024/01/08 09:05:56;;;;;;;15.95;9.35;;;-3.00;98.70;;;;;;5069963;28;20288;-81
2024/01/08 09:08:25;;;;;;;13.63;9.48;;;-3.00;98.80;;;;;;5091735;28;20239;-82
2024/01/08 09:10:59;;;;;;;11.07;7.38;;;-3.00;98.90;;;;;;5095956;28;20212;-83
2024/01/08 09:13:40;;;;;;;11.20;8.02;;;-3.00;99.10;;;;;;5078951;28;20248;-84
2024/01/08 09:16:39;;;;;;;10.40;7.80;;;-3.00;99.10;;;;;;5089756;28;20223;-82
2024/01/08 09:19:12;;;;;;;12.88;8.13;;;-2.90;99.20;;;;;;5102448;28;20196;-82
2024/01/08 09:21:57;;;;;;;8.02;6.60;;;-2.90;99.10;;;;;;5093432;28;20234;-82
2024/01/08 09:24:47;;;;;;;9.70;7.55;;;-3.00;98.70;;;;;;5075132;28;20228;-82
2024/01/08 09:27:18;;;;;;;11.50;7.78;;;-2.90;99.00;;;;;;5068130;28;20225;-82
2024/01/08 09:29:47;;;;;;;7.80;7.03;;;-3.00;98.80;;;;;;5066544;28;20224;-82
2024/01/08 09:32:19;;;;;;;11.00;7.40;;;-3.00;98.20;;;;;;5079035;28;20224;-83
2024/01/08 09:34:48;;;;;;;10.45;6.55;;;-3.00;98.40;;;;;;5089291;28;20228;-82
2024/01/08 09:37:23;;;;;;;12.35;7.80;;;-3.00;98.50;;;;;;5077672;28;20693;-82
2024/01/08 09:39:52;;;;;;;9.90;7.25;;;-2.90;99.40;;;;;;5058704;28;20224;-83
2024/01/08 09:42:22;;;;;;;13.82;7.60;;;-2.80;99.80;;;;;;5057062;28;20236;-83
2024/01/08 09:44:54;;;;;;;7.97;5.82;;;-2.80;99.10;;;;;;5057968;28;20624;-82
2024/01/08 09:47:29;;;;;;;8.60;6.20;;;-2.70;98.40;;;;;;5060904;28;20217;-83
2024/01/08 09:50:17;;;;;;;9.82;6.38;;;-2.80;97.90;;;;;;5051886;28;20224;-83
2024/01/08 09:52:52;;;;;;;8.43;5.55;;;-2.70;98.20;;;;;;5044801;28;20607;-83
2024/01/08 09:55:25;;;;;;;11.18;5.82;;;-2.60;98.60;;;;;;5067114;28;20227;-83
2024/01/08 10:00:37;;;;;;;11.55;6.35;;;-2.50;97.90;;;;;;5076649;28;20242;-91
2024/01/08 10:03:07;;;;;;;8.48;6.75;;;-2.60;97.80;;;;;;5079353;28;20307;-91
2024/01/08 10:05:40;;;;;;;8.77;6.18;;;-2.60;97.70;;;;;;5079118;28;20227;-92
2024/01/08 10:08:07;;;;;;;5.95;5.45;;;-2.60;97.60;;;;;;5077897;28;20224;-92
2024/01/08 10:10:41;;;;;;;9.43;5.80;;;-2.60;96.80;;;;;;5075339;28;20223;-92
2024/01/08 10:13:10;;;;;;;7.68;5.60;;;-2.60;96.60;;;;;;5068332;28;20233;-83
2024/01/08 10:15:46;;;;;;;7.20;5.28;;;-2.50;96.80;;;;;;5054575;28;20240;-83
2024/01/08 10:18:46;;;;;;;6.70;4.97;;;-2.50;97.00;;;;;;5079654;28;20223;-83
2024/01/08 10:21:17;;;;;;;7.07;5.18;;;-2.50;95.70;;;;;;5049117;28;20239;-84
2024/01/08 10:23:49;;;;;;;7.32;5.65;;;-2.50;95.90;;;;;;5075623;28;20316;-83
2024/01/08 10:26:28;;;;;;;6.95;6.25;;;-2.50;95.60;;;;;;5073953;28;20277;-82
2024/01/08 10:29:15;;;;;;;8.98;5.95;;;-2.40;95.90;;;;;;5074020;28;20220;-82
2024/01/08 10:31:46;;;;;;;8.55;5.88;;;-2.30;95.90;;;;;;5063142;28;20224;-83
2024/01/08 10:34:13;;;;;;;7.85;5.80;;;-2.30;95.20;;;;;;5043089;28;20603;-84
2024/01/08 10:36:42;;;;;;;8.27;5.43;;;-2.20;94.70;;;;;;5059910;28;20681;-84
2024/01/08 10:39:10;;;;;;;5.70;5.00;;;-2.30;94.70;;;;;;5056836;28;20244;-83
2024/01/08 10:41:37;;;;;;;7.18;6.20;;;-2.20;95.00;;;;;;5058832;28;20225;-84
2024/01/08 10:44:10;;;;;;;8.55;6.03;;;-2.20;94.60;;;;;;5045398;28;20225;-84
2024/01/08 10:46:53;;;;;;;6.95;5.18;;;-2.10;94.90;;;;;;5055622;28;20225;-83
2024/01/08 10:49:36;;;;;;;6.70;5.82;;;-2.10;94.80;;;;;;5054424;28;20615;-83
2024/01/08 10:52:16;;;;;;;7.70;5.20;;;-2.00;94.70;;;;;;5059073;28;20259;-92
2024/01/08 10:54:51;;;;;;;8.48;5.05;;;-1.90;94.60;;;;;;5051761;28;20286;-94
2024/01/08 10:57:32;;;;;;;8.50;4.97;;;-1.90;94.10;;;;;;5055536;28;20311;-93
2024/01/08 11:00:09;;;;;;;7.30;5.72;;;-1.90;94.00;;;;;;5061786;28;20227;-94
2024/01/08 11:02:45;;;;;;;6.25;4.95;;;-1.80;93.90;;;;;;5051403;28;20223;-84
2024/01/08 11:08:22;;;;;;;8.20;5.68;;;-1.90;93.40;;;;;;5059234;28;20265;-92
2024/01/08 11:11:09;;;;;;;6.32;5.72;;;-1.80;93.70;;;;;;5081049;28;20234;-93
2024/01/08 11:13:46;;;;;;;6.47;4.88;;;-1.90;93.10;;;;;;5077652;28;20215;-84
2024/01/08 11:16:20;;;;;;;10.20;4.93;;;-1.90;92.70;;;;;;5073966;28;20376;-84
2024/01/08 11:18:52;;;;;;;6.68;4.70;;;-1.90;92.60;;;;;;5080087;28;20227;-83
2024/01/08 11:21:28;;;;;;;5.32;4.82;;;-1.90;92.80;;;;;;5074126;28;20567;-84
2024/01/08 11:24:05;;;;;;;7.85;4.60;;;-1.80;92.70;;;;;;5061942;28;20248;-84
2024/01/08 11:26:45;;;;;;;6.35;3.95;;;-1.80;92.60;;;;;;5070677;28;20223;-93
2024/01/08 11:29:21;;;;;;;5.70;4.65;;;-1.70;91.70;;;;;;5081970;28;20224;-92
2024/01/08 11:35:20;;;;;;;6.30;4.78;;;-1.70;90.70;;;;;;5038821;28;20236;-92
2024/01/08 11:38:05;;;;;;;6.10;5.03;;;-1.60;90.80;;;;;;5101570;28;20788;-92
2024/01/08 11:40:37;;;;;;;6.90;5.63;;;-1.60;90.90;;;;;;5085265;28;20268;-92
2024/01/08 11:43:09;;;;;;;6.18;4.30;;;-1.60;90.00;;;;;;5179524;22;20230;-93
2024/01/08 11:45:44;;;;;;;8.80;6.13;;;-1.60;90.20;;;;;;5113831;28;20687;-92
2024/01/08 11:48:11;;;;;;;5.95;4.05;;;-1.60;90.20;;;;;;5099371;28;20194;-93
2024/01/08 11:54:31;;;;;;;5.10;4.30;;;-1.40;90.00;;;;;;4922681;29;20651;-91
2024/01/08 11:57:14;;;;;;;;;;;;;;;;;;;;;
2024/01/08 11:59:46;;;;;;;6.78;4.80;;;-1.40;88.80;;;;;;4930208;29;20685;-92
2024/01/08 12:02:23;;;;;;;9.35;6.30;;;-1.30;88.70;;;;;;4934300;29;20267;-92
2024/01/08 12:04:56;;;;;;;7.07;4.28;;;-1.30;88.10;;;;;;4913163;28;20621;-92
2024/01/08 12:07:34;;;;;;;7.10;5.10;;;-1.30;86.40;;;;;;4934889;28;20236;-91
2024/01/08 12:10:06;;;;;;;8.57;5.13;;;-1.40;85.80;;;;;;4944068;28;20291;-91
2024/01/08 12:16:05;;;;;;;6.65;4.40;;;-1.30;86.80;;;;;;4919271;28;20668;-92
2024/01/08 12:18:32;;;;;;;8.50;5.13;;;-1.20;86.60;;;;;;4934789;28;20236;-93
2024/01/08 12:21:03;;;;;;;7.00;4.13;;;-1.20;85.80;;;;;;4924107;28;20225;-92
2024/01/08 12:23:46;;;;;;;8.13;5.20;;;-1.20;85.60;;;;;;4933694;28;20237;-92
2024/01/08 12:26:37;;;;;;;5.57;4.50;;;-1.20;84.40;;;;;;4910133;29;20225;-83
2024/01/08 12:29:08;;;;;;;6.75;4.95;;;-1.20;83.40;;;;;;4918478;29;20679;-92
2024/01/08 12:31:36;;;;;;;7.65;5.50;;;-1.10;84.30;;;;;;4916309;29;20229;-92
2024/01/08 12:34:15;;;;;;;6.30;4.35;;;-1.10;84.60;;;;;;4908055;29;20232;-93
2024/01/08 12:36:48;;;;;;;4.68;4.15;;;-1.10;82.20;;;;;;4923263;29;20281;-83
2024/01/08 12:39:16;;;;;;;5.38;4.40;;;-1.10;80.80;;;;;;4908722;29;20284;-83
2024/01/08 12:41:55;;;;;;;6.25;5.10;;;-1.00;81.40;;;;;;4923413;29;20229;-91
2024/01/08 12:44:26;;;;;;;5.35;4.10;;;-1.00;80.20;;;;;;4911108;29;20384;-84
2024/01/08 12:46:55;;;;;;;4.95;3.20;;;-1.00;80.20;;;;;;4922991;29;20230;-83
2024/01/08 12:49:37;;;;;;;5.32;4.82;;;-1.00;80.00;;;;;;4918695;28;20247;-92
2024/01/08 12:52:08;;;;;;;6.00;4.75;;;-1.00;80.30;;;;;;4908019;29;20233;-91
2024/01/08 12:58:13;;;;;;;9.07;4.00;;;-0.90;81.30;;;;;;4820727;29;20229;-92
2024/01/08 13:00:42;;;;;;;7.07;4.70;;;-0.90;80.90;;;;;;4901341;29;20658;-92
2024/01/08 13:03:40;;;;;;;6.15;3.97;;;-0.90;79.70;;;;;;4880006;29;20277;-93
2024/01/08 13:06:47;;;;;;;6.75;4.68;;;-1.00;79.00;;;;;;4886313;29;20279;-88
2024/01/08 13:09:15;;;;;;;7.90;4.45;;;-1.00;79.10;;;;;;4882073;29;20294;-90
2024/01/08 13:11:46;;;;;;;6.78;4.38;;;-0.90;79.80;;;;;;4900448;29;20238;-92
2024/01/08 13:14:22;;;;;;;8.70;5.05;;;-0.90;80.30;;;;;;4900439;29;20564;-83
2024/01/08 13:16:52;;;;;;;7.13;5.47;;;-0.90;80.20;;;;;;4880171;29;20229;-83
2024/01/08 13:19:59;;;;;;;5.30;4.40;;;-0.90;80.80;;;;;;4907927;29;20282;-92
2024/01/08 13:22:29;;;;;;;4.70;4.15;;;-0.80;81.50;;;;;;4904425;29;20330;-93
2024/01/08 13:25:15;;;;;;;8.70;5.53;;;-0.80;81.90;;;;;;4910229;29;20222;-93
2024/01/08 13:30:56;;;;;;;8.27;5.60;;;-0.80;83.10;;;;;;4886053;29;20237;-83
2024/01/08 13:33:56;;;;;;;9.88;5.38;;;-0.70;83.80;;;;;;4875568;29;20329;-83
2024/01/08 13:36:40;;;;;;;5.68;4.93;;;-0.60;84.50;;;;;;4844534;29;20247;-92
2024/01/08 13:42:54;;;;;;;8.40;6.28;;;-0.50;85.20;;;;;;4847212;29;20230;-82
2024/01/08 13:45:26;;;;;;;8.35;5.22;;;-0.50;86.00;;;;;;4815354;29;20240;-83
2024/01/08 13:48:11;;;;;;;9.23;6.72;;;-0.40;86.70;;;;;;4828967;29;20288;-92
2024/01/08 13:50:44;;;;;;;7.18;6.57;;;-0.40;86.90;;;;;;4851500;29;20568;-93
2024/01/08 13:53:11;;;;;;;9.63;6.30;;;-0.40;87.10;;;;;;4873259;29;20239;-86
2024/01/08 13:55:39;;;;;;;9.35;5.88;;;-0.30;87.30;;;;;;4904277;29;20238;-92
2024/01/08 13:58:11;;;;;;;8.20;6.07;;;-0.30;86.90;;;;;;4924290;29;20311;-84
2024/01/08 14:00:40;;;;;;;7.90;5.63;;;-0.30;87.00;;;;;;4901702;29;20253;-93
2024/01/08 14:03:12;;;;;;;8.23;5.65;;;-0.30;86.30;;;;;;4914927;29;20240;-82